Time;durP1;ratioP1;P1;durP2;ratioP2;P2;SDS_P1;SDS_P2;PMS_P1;PMS_P2;Temp;Humidity;BMP_temperature;BMP_pressure;BME280_temperature;BME280_humidity;BME280_pressure;Samples;Min_cycle;Max_cycle;Signal;HPM_P1;HPM_P2
2022/12/23 00:01:12;;;;;;;45.10;13.43;;;;;;;;;;5011333;28;20065;-82
2022/12/23 00:03:39;;;;;;;50.33;14.50;;;;;;;;;;5027782;28;20067;-82
2022/12/23 00:06:11;;;;;;;71.18;15.82;;;;;;;;;;5017013;28;20180;-82
2022/12/23 00:08:38;;;;;;;45.20;13.55;;;;;;;;;;5017176;28;20085;-82
2022/12/23 00:11:06;;;;;;;76.78;15.82;;;;;;;;;;5017154;28;20855;-82
2022/12/23 00:16:20;;;;;;;48.83;15.23;;;;;;;;;;5014059;28;20054;-82
2022/12/23 00:18:49;;;;;;;59.67;16.02;;;;;;;;;;5015355;28;20050;-82
2022/12/23 00:21:16;;;;;;;64.70;16.75;;;;;;;;;;5015415;28;20051;-82
2022/12/23 00:23:45;;;;;;;71.50;16.42;;;;;;;;;;5012093;28;20050;-82
2022/12/23 00:26:14;;;;;;;38.28;13.85;;;;;;;;;;5011349;28;20839;-82
2022/12/23 00:28:41;;;;;;;62.03;15.25;;;;;;;;;;5015662;28;20674;-82
2022/12/23 00:31:09;;;;;;;50.10;14.75;;;;;;;;;;5017378;28;20057;-83
2022/12/23 00:33:38;;;;;;;60.97;15.30;;;;;;;;;;5019995;28;20046;-81
2022/12/23 00:36:11;;;;;;;37.70;13.50;;;;;;;;;;5019757;28;20047;-81
2022/12/23 00:44:10;;;;;;;69.07;15.70;;;;;;;;;;5017005;28;23148;-81
2022/12/23 00:46:38;;;;;;;73.43;15.20;;;;;;;;;;5016965;28;20050;-81
2022/12/23 00:51:53;;;;;;;38.47;11.75;;;;;;;;;;5020551;28;20074;-81
2022/12/23 00:54:20;;;;;;;53.00;13.85;;;;;;;;;;5020259;28;20943;-81
2022/12/23 00:56:47;;;;;;;33.95;10.93;;;;;;;;;;5020975;28;20046;-81
2022/12/23 00:59:14;;;;;;;53.33;12.20;;;;;;;;;;5019080;28;20456;-80
2022/12/23 01:07:14;;;;;;;36.90;10.75;;;;;;;;;;5014383;28;20074;-81
2022/12/23 01:09:41;;;;;;;52.00;13.15;;;;;;;;;;5018901;28;20054;-81
2022/12/23 01:12:08;;;;;;;79.30;13.65;;;;;;;;;;5016946;28;20078;-81
2022/12/23 01:14:36;;;;;;;37.00;11.77;;;;;;;;;;5013178;28;20046;-81
2022/12/23 01:17:03;;;;;;;50.67;12.55;;;;;;;;;;5013679;28;20046;-81
2022/12/23 01:19:32;;;;;;;47.80;12.68;;;;;;;;;;5015787;28;20038;-81
2022/12/23 01:21:59;;;;;;;41.95;12.93;;;;;;;;;;5019369;28;20058;-81
2022/12/23 01:24:31;;;;;;;80.70;12.85;;;;;;;;;;5033622;28;20073;-81
2022/12/23 01:26:58;;;;;;;47.30;13.52;;;;;;;;;;5014763;28;20037;-81
2022/12/23 01:29:25;;;;;;;90.07;15.95;;;;;;;;;;5034650;28;20054;-81
2022/12/23 01:31:55;;;;;;;62.08;13.15;;;;;;;;;;5017020;28;20125;-81
2022/12/23 01:34:22;;;;;;;47.03;12.85;;;;;;;;;;5018036;28;20107;-81
2022/12/23 01:36:49;;;;;;;46.30;12.52;;;;;;;;;;5015899;28;20141;-81
2022/12/23 01:39:18;;;;;;;47.10;13.35;;;;;;;;;;5017727;28;20411;-81
2022/12/23 01:45:05;;;;;;;47.63;12.75;;;;;;;;;;5014227;28;20263;-81
2022/12/23 01:47:48;;;;;;;75.57;15.00;;;;;;;;;;4978977;28;20047;-81
2022/12/23 01:50:50;;;;;;;40.33;12.30;;;;;;;;;;4993277;28;20105;-81
2022/12/23 01:53:17;;;;;;;39.88;12.07;;;;;;;;;;4975092;28;20126;-81
2022/12/23 01:55:50;;;;;;;56.65;12.52;;;;;;;;;;4993453;28;20043;-81
2022/12/23 01:58:19;;;;;;;62.88;12.93;;;;;;;;;;4994394;28;20055;-80
2022/12/23 02:03:41;;;;;;;35.03;11.18;;;;;;;;;;4993373;28;20106;-81
2022/12/23 02:11:57;;;;;;;66.43;10.65;;;;;;;;;;4992325;28;20059;-81
2022/12/23 02:17:42;;;;;;;62.83;10.98;;;;;;;;;;4992546;28;20050;-81
2022/12/23 02:20:28;;;;;;;30.75;9.18;;;;;;;;;;4993597;28;20046;-81
2022/12/23 02:23:14;;;;;;;42.25;9.65;;;;;;;;;;4996353;28;21006;-80
2022/12/23 02:25:41;;;;;;;70.05;10.00;;;;;;;;;;5014930;28;20057;-80
2022/12/23 02:28:32;;;;;;;59.40;9.63;;;;;;;;;;5010548;28;20058;-81
2022/12/23 02:31:31;;;;;;;30.00;8.02;;;;;;;;;;5014987;28;20119;-81
2022/12/23 02:34:01;;;;;;;42.83;8.60;;;;;;;;;;4997133;28;20949;-81
2022/12/23 02:36:38;;;;;;;35.72;7.47;;;;;;;;;;5014919;28;20042;-81
2022/12/23 02:39:08;;;;;;;21.42;7.32;;;;;;;;;;5026849;28;20060;-81
2022/12/23 02:41:41;;;;;;;39.28;7.15;;;;;;;;;;5016379;28;20054;-81
2022/12/23 02:44:13;;;;;;;15.52;6.40;;;;;;;;;;5013959;28;20094;-81
2022/12/23 02:46:47;;;;;;;33.42;6.85;;;;;;;;;;5029788;28;20117;-81
2022/12/23 02:49:18;;;;;;;29.25;6.95;;;;;;;;;;5013301;28;20051;-81
2022/12/23 02:51:48;;;;;;;16.02;6.30;;;;;;;;;;5014200;28;20058;-81
2022/12/23 02:54:18;;;;;;;40.15;6.93;;;;;;;;;;5028563;28;20133;-81
2022/12/23 02:56:47;;;;;;;24.63;7.20;;;;;;;;;;5016653;28;20042;-81
2022/12/23 02:59:17;;;;;;;16.67;5.63;;;;;;;;;;5009452;28;20086;-81
2022/12/23 03:01:45;;;;;;;19.30;6.10;;;;;;;;;;5012518;28;20121;-81
2022/12/23 03:04:13;;;;;;;21.00;6.45;;;;;;;;;;5012540;28;20051;-80
2022/12/23 03:06:42;;;;;;;16.35;5.95;;;;;;;;;;5015264;28;20859;-80
2022/12/23 03:09:13;;;;;;;30.52;7.22;;;;;;;;;;5017129;28;20073;-81
2022/12/23 03:11:44;;;;;;;19.73;6.50;;;;;;;;;;5014247;28;20041;-81
2022/12/23 03:14:24;;;;;;;14.35;5.38;;;;;;;;;;5010865;28;20082;-80
2022/12/23 03:16:54;;;;;;;19.67;6.57;;;;;;;;;;5007265;28;20046;-81
2022/12/23 03:19:24;;;;;;;14.93;6.22;;;;;;;;;;5006655;28;20806;-81
2022/12/23 03:22:09;;;;;;;18.05;6.35;;;;;;;;;;5014053;28;20050;-81
2022/12/23 03:24:41;;;;;;;20.08;6.18;;;;;;;;;;5015466;28;20054;-81
2022/12/23 03:27:34;;;;;;;19.65;7.22;;;;;;;;;;5011277;28;20054;-81
2022/12/23 03:30:09;;;;;;;23.30;6.63;;;;;;;;;;4995057;28;20039;-80
2022/12/23 03:32:54;;;;;;;17.95;6.13;;;;;;;;;;5011131;28;20043;-80
2022/12/23 03:35:25;;;;;;;20.75;6.95;;;;;;;;;;5012427;28;20058;-80
2022/12/23 03:37:53;;;;;;;24.20;6.28;;;;;;;;;;5012268;28;20639;-80
2022/12/23 03:40:28;;;;;;;25.80;6.55;;;;;;;;;;5011672;28;20062;-81
2022/12/23 03:42:58;;;;;;;28.23;6.63;;;;;;;;;;5030331;28;20142;-81
2022/12/23 03:45:32;;;;;;;47.85;7.43;;;;;;;;;;5013001;28;20071;-81
2022/12/23 03:48:14;;;;;;;19.05;6.80;;;;;;;;;;5029865;28;20552;-81
2022/12/23 03:50:42;;;;;;;31.88;7.05;;;;;;;;;;5016309;28;20039;-80
2022/12/23 03:53:22;;;;;;;47.00;7.80;;;;;;;;;;5014366;28;20051;-81
2022/12/23 03:55:58;;;;;;;49.15;8.07;;;;;;;;;;5030380;28;20051;-81
2022/12/23 03:58:31;;;;;;;75.40;8.57;;;;;;;;;;5014728;28;20054;-81
2022/12/23 04:01:10;;;;;;;19.70;6.72;;;;;;;;;;5015888;28;20152;-81
2022/12/23 04:03:49;;;;;;;43.22;7.03;;;;;;;;;;5015227;28;20051;-81
2022/12/23 04:06:17;;;;;;;50.75;7.32;;;;;;;;;;5012921;28;20046;-80
2022/12/23 04:08:45;;;;;;;48.65;6.70;;;;;;;;;;5017794;28;20075;-81
2022/12/23 04:11:13;;;;;;;26.70;7.07;;;;;;;;;;5018049;28;20062;-81
2022/12/23 04:13:40;;;;;;;21.92;6.80;;;;;;;;;;5016533;28;20129;-81
2022/12/23 04:16:10;;;;;;;27.30;7.15;;;;;;;;;;5016412;28;20113;-81
2022/12/23 04:18:38;;;;;;;48.42;7.40;;;;;;;;;;5015916;28;20097;-81
2022/12/23 04:21:08;;;;;;;29.70;7.47;;;;;;;;;;5008352;28;20099;-81
2022/12/23 04:23:35;;;;;;;23.85;7.07;;;;;;;;;;5011490;28;20058;-81
2022/12/23 04:26:02;;;;;;;50.58;8.60;;;;;;;;;;5015149;28;20053;-81
2022/12/23 04:28:29;;;;;;;71.25;8.55;;;;;;;;;;5031147;28;20119;-81
2022/12/23 04:30:57;;;;;;;42.03;8.10;;;;;;;;;;5018175;28;20043;-81
2022/12/23 04:33:24;;;;;;;28.45;7.53;;;;;;;;;;5017975;28;20073;-81
2022/12/23 04:35:51;;;;;;;54.17;8.57;;;;;;;;;;5007566;28;20045;-81
2022/12/23 04:38:18;;;;;;;67.88;8.77;;;;;;;;;;5015073;28;20525;-81
2022/12/23 04:40:46;;;;;;;47.13;8.57;;;;;;;;;;5010878;28;20047;-81
2022/12/23 04:43:13;;;;;;;26.48;7.80;;;;;;;;;;5012250;28;20145;-81
2022/12/23 04:45:40;;;;;;;40.42;8.70;;;;;;;;;;5023696;28;20138;-81
2022/12/23 04:48:08;;;;;;;37.28;7.88;;;;;;;;;;5015414;28;20073;-81
2022/12/23 04:50:35;;;;;;;34.80;7.97;;;;;;;;;;5007093;28;20110;-81
2022/12/23 04:53:02;;;;;;;34.20;7.78;;;;;;;;;;5011305;28;20374;-81
2022/12/23 04:55:29;;;;;;;25.15;7.90;;;;;;;;;;5016776;28;20058;-81
2022/12/23 04:57:59;;;;;;;44.17;9.30;;;;;;;;;;5023517;28;20615;-80
2022/12/23 05:00:27;;;;;;;45.80;8.23;;;;;;;;;;5016960;28;20034;-81
2022/12/23 05:03:01;;;;;;;36.38;7.63;;;;;;;;;;5014828;28;20049;-81
2022/12/23 05:05:28;;;;;;;36.58;8.45;;;;;;;;;;5016573;28;20062;-81
2022/12/23 05:08:01;;;;;;;31.20;8.75;;;;;;;;;;5015635;28;20867;-81
2022/12/23 05:10:28;;;;;;;28.50;8.48;;;;;;;;;;5015899;28;20125;-81
2022/12/23 05:12:57;;;;;;;23.58;8.20;;;;;;;;;;5016993;28;20034;-81
2022/12/23 05:15:27;;;;;;;38.35;9.50;;;;;;;;;;5014349;28;20125;-81
2022/12/23 05:17:54;;;;;;;30.13;8.73;;;;;;;;;;5014945;28;20081;-81
2022/12/23 05:20:21;;;;;;;23.35;9.07;;;;;;;;;;5013248;28;20049;-81
2022/12/23 05:22:48;;;;;;;28.10;9.32;;;;;;;;;;5014895;28;20032;-81
2022/12/23 05:25:15;;;;;;;32.05;9.18;;;;;;;;;;5018772;28;20046;-81
2022/12/23 05:27:42;;;;;;;68.60;10.48;;;;;;;;;;5018313;28;20046;-81
2022/12/23 05:30:10;;;;;;;38.00;9.05;;;;;;;;;;5015791;28;20038;-81
2022/12/23 05:32:39;;;;;;;55.08;10.27;;;;;;;;;;5014291;28;20038;-81
2022/12/23 05:35:06;;;;;;;98.63;10.70;;;;;;;;;;5019344;28;20042;-81
2022/12/23 05:37:34;;;;;;;98.85;11.57;;;;;;;;;;5016441;28;20046;-81
2022/12/23 05:40:01;;;;;;;119.03;11.32;;;;;;;;;;5012353;28;20055;-81
2022/12/23 05:42:28;;;;;;;79.05;10.65;;;;;;;;;;5015259;28;20323;-81
2022/12/23 05:44:55;;;;;;;60.80;10.77;;;;;;;;;;5013821;28;20051;-81
2022/12/23 05:47:25;;;;;;;163.77;13.25;;;;;;;;;;5016238;28;20726;-81
2022/12/23 05:49:52;;;;;;;86.88;11.65;;;;;;;;;;5016583;28;20130;-81
2022/12/23 05:52:19;;;;;;;44.10;9.68;;;;;;;;;;5014802;28;20056;-81
2022/12/23 05:54:47;;;;;;;78.10;12.07;;;;;;;;;;5014429;28;20038;-81
2022/12/23 05:57:14;;;;;;;95.07;11.75;;;;;;;;;;5014658;28;20046;-81
2022/12/23 05:59:41;;;;;;;110.50;12.30;;;;;;;;;;5013887;28;20448;-81
2022/12/23 06:02:08;;;;;;;124.78;11.82;;;;;;;;;;5026378;28;20058;-81
2022/12/23 06:04:40;;;;;;;94.05;11.30;;;;;;;;;;5013813;28;20050;-80
2022/12/23 06:07:08;;;;;;;139.13;11.70;;;;;;;;;;5018578;28;20057;-81
2022/12/23 06:09:35;;;;;;;147.55;12.80;;;;;;;;;;5014888;28;20065;-81
2022/12/23 06:12:03;;;;;;;95.50;11.02;;;;;;;;;;5013247;28;20050;-81
2022/12/23 06:14:32;;;;;;;54.38;10.40;;;;;;;;;;5012457;28;20110;-81
2022/12/23 06:16:59;;;;;;;55.13;9.95;;;;;;;;;;5014588;28;20056;-81
2022/12/23 06:19:26;;;;;;;47.75;9.95;;;;;;;;;;5012850;28;20051;-81
2022/12/23 06:21:53;;;;;;;181.55;13.30;;;;;;;;;;5017860;28;20050;-81
2022/12/23 06:24:21;;;;;;;138.45;12.45;;;;;;;;;;5009656;28;20046;-81
2022/12/23 06:26:48;;;;;;;88.45;10.82;;;;;;;;;;5014716;28;20697;-81
2022/12/23 06:29:23;;;;;;;112.32;11.98;;;;;;;;;;5012181;28;20134;-81
2022/12/23 06:31:50;;;;;;;110.28;12.43;;;;;;;;;;5013529;28;20116;-81
2022/12/23 06:34:17;;;;;;;91.63;10.70;;;;;;;;;;5014939;28;20133;-81
2022/12/23 06:36:44;;;;;;;211.18;14.15;;;;;;;;;;5015070;28;20125;-81
2022/12/23 06:39:11;;;;;;;149.32;13.73;;;;;;;;;;5018055;28;20042;-81
2022/12/23 06:41:39;;;;;;;127.05;13.48;;;;;;;;;;5015919;28;20590;-81
2022/12/23 06:44:09;;;;;;;200.73;14.35;;;;;;;;;;5013163;28;20093;-81
2022/12/23 06:46:36;;;;;;;94.40;12.15;;;;;;;;;;5016992;28;20116;-81
2022/12/23 06:49:03;;;;;;;64.55;11.55;;;;;;;;;;5014735;28;20042;-81
2022/12/23 06:51:38;;;;;;;168.30;13.18;;;;;;;;;;5015172;28;20035;-81
2022/12/23 06:54:06;;;;;;;165.93;13.25;;;;;;;;;;5009567;28;20066;-81
2022/12/23 06:56:33;;;;;;;225.75;14.68;;;;;;;;;;5014932;28;20931;-81
2022/12/23 06:59:00;;;;;;;154.38;12.68;;;;;;;;;;5013214;28;20089;-81
2022/12/23 07:01:27;;;;;;;155.50;12.45;;;;;;;;;;5030377;28;20038;-81
2022/12/23 07:03:54;;;;;;;112.93;11.98;;;;;;;;;;5016473;28;20124;-81
2022/12/23 07:06:22;;;;;;;107.55;12.38;;;;;;;;;;5013388;28;20054;-82
2022/12/23 07:08:50;;;;;;;145.55;12.15;;;;;;;;;;5010057;28;20046;-81
2022/12/23 07:11:19;;;;;;;110.68;12.25;;;;;;;;;;5013772;28;20060;-81
2022/12/23 07:13:46;;;;;;;129.32;12.75;;;;;;;;;;5011740;28;20043;-81
2022/12/23 07:16:17;;;;;;;156.98;12.88;;;;;;;;;;5019321;28;20051;-81
2022/12/23 07:18:51;;;;;;;179.32;13.57;;;;;;;;;;5011176;28;20090;-81
2022/12/23 07:21:18;;;;;;;200.10;14.57;;;;;;;;;;5011543;28;20051;-81
2022/12/23 07:23:55;;;;;;;202.63;13.25;;;;;;;;;;5015035;28;20058;-81
2022/12/23 07:26:22;;;;;;;176.75;13.00;;;;;;;;;;5013703;28;20062;-81
2022/12/23 07:28:49;;;;;;;220.50;13.02;;;;;;;;;;5011578;28;20096;-81
2022/12/23 07:31:19;;;;;;;127.65;12.70;;;;;;;;;;5017349;28;20035;-81
2022/12/23 07:33:46;;;;;;;153.02;13.82;;;;;;;;;;5013719;28;20040;-81
2022/12/23 07:36:13;;;;;;;274.95;14.88;;;;;;;;;;5018356;28;20050;-81
2022/12/23 07:38:40;;;;;;;90.22;12.30;;;;;;;;;;5012743;28;20050;-80
2022/12/23 07:41:07;;;;;;;86.18;12.93;;;;;;;;;;5014349;28;20505;-81
2022/12/23 07:43:34;;;;;;;164.45;15.23;;;;;;;;;;5016025;28;20061;-80
2022/12/23 07:46:08;;;;;;;231.02;15.15;;;;;;;;;;5015381;28;20053;-80
2022/12/23 07:48:36;;;;;;;120.95;12.35;;;;;;;;;;5017064;28;20053;-81
2022/12/23 07:51:08;;;;;;;163.48;13.52;;;;;;;;;;5017591;28;20039;-80
2022/12/23 07:53:35;;;;;;;191.80;13.48;;;;;;;;;;5032146;28;20547;-80
2022/12/23 07:56:02;;;;;;;211.80;15.73;;;;;;;;;;5013875;28;20725;-80
2022/12/23 07:58:29;;;;;;;158.93;14.10;;;;;;;;;;5013274;28;20055;-80
2022/12/23 08:00:58;;;;;;;128.88;13.13;;;;;;;;;;5016781;28;20186;-81
2022/12/23 08:03:26;;;;;;;110.30;12.90;;;;;;;;;;5020658;28;20144;-80
2022/12/23 08:06:05;;;;;;;151.63;12.98;;;;;;;;;;5012688;28;20053;-80
2022/12/23 08:08:32;;;;;;;114.25;13.13;;;;;;;;;;5014614;28;20481;-80
2022/12/23 08:11:00;;;;;;;129.65;13.35;;;;;;;;;;5013581;28;20043;-80
2022/12/23 08:13:28;;;;;;;97.22;12.93;;;;;;;;;;5015891;28;20105;-80
2022/12/23 08:15:56;;;;;;;179.05;14.07;;;;;;;;;;5012654;28;20075;-80
2022/12/23 08:18:23;;;;;;;110.93;13.18;;;;;;;;;;5014977;28;20051;-80
2022/12/23 08:21:00;;;;;;;113.25;13.55;;;;;;;;;;5014128;28;20158;-80
2022/12/23 08:23:28;;;;;;;104.45;13.38;;;;;;;;;;5016619;28;20082;-80
2022/12/23 08:25:59;;;;;;;116.90;13.52;;;;;;;;;;5012830;28;20079;-80
2022/12/23 08:28:27;;;;;;;186.45;15.45;;;;;;;;;;5012545;28;20113;-80
2022/12/23 08:30:54;;;;;;;151.82;14.27;;;;;;;;;;5012039;28;20053;-81
2022/12/23 08:33:23;;;;;;;117.15;14.48;;;;;;;;;;5010720;28;20104;-80
2022/12/23 08:35:55;;;;;;;101.63;15.32;;;;;;;;;;5014677;28;20666;-80
2022/12/23 08:38:26;;;;;;;102.13;15.65;;;;;;;;;;5016042;28;20034;-80
2022/12/23 08:40:53;;;;;;;120.80;17.00;;;;;;;;;;5018040;28;20054;-80
2022/12/23 08:43:20;;;;;;;136.32;15.85;;;;;;;;;;5015927;28;20050;-80
2022/12/23 08:45:48;;;;;;;82.07;15.52;;;;;;;;;;5010800;28;20811;-80
2022/12/23 08:48:15;;;;;;;168.32;18.48;;;;;;;;;;5014044;28;20042;-80
2022/12/23 08:50:43;;;;;;;141.63;18.00;;;;;;;;;;5012676;28;20043;-80
2022/12/23 08:53:11;;;;;;;170.93;18.58;;;;;;;;;;5016328;28;20058;-80
2022/12/23 08:55:40;;;;;;;151.90;17.85;;;;;;;;;;5015444;28;20074;-81
2022/12/23 08:58:09;;;;;;;134.00;18.35;;;;;;;;;;5035293;28;20048;-81
2022/12/23 09:00:36;;;;;;;195.07;18.65;;;;;;;;;;5016432;28;20051;-80
2022/12/23 09:03:06;;;;;;;121.50;18.27;;;;;;;;;;5018913;28;20058;-80
2022/12/23 09:05:38;;;;;;;166.85;18.25;;;;;;;;;;5017767;28;20137;-80
2022/12/23 09:08:08;;;;;;;93.63;16.73;;;;;;;;;;5015884;28;20083;-80
2022/12/23 09:10:44;;;;;;;137.00;18.27;;;;;;;;;;5017528;28;20133;-80
2022/12/23 09:13:11;;;;;;;153.07;19.77;;;;;;;;;;5021287;28;20050;-80
2022/12/23 09:15:48;;;;;;;115.20;17.00;;;;;;;;;;5015228;28;20061;-80
2022/12/23 09:18:23;;;;;;;121.88;17.30;;;;;;;;;;5016896;28;20137;-80
2022/12/23 09:20:56;;;;;;;145.73;17.45;;;;;;;;;;5016333;28;20112;-80
2022/12/23 09:23:23;;;;;;;131.75;18.05;;;;;;;;;;5014619;28;20038;-81
2022/12/23 09:25:50;;;;;;;203.45;19.25;;;;;;;;;;5013251;28;20046;-80
2022/12/23 09:28:21;;;;;;;195.77;19.27;;;;;;;;;;5027475;28;20078;-80
2022/12/23 09:30:48;;;;;;;224.38;19.50;;;;;;;;;;5013989;28;20897;-81
2022/12/23 09:33:16;;;;;;;219.50;18.85;;;;;;;;;;5032163;28;20050;-81
2022/12/23 09:35:43;;;;;;;163.52;18.52;;;;;;;;;;5016884;28;20043;-80
2022/12/23 09:38:10;;;;;;;191.95;19.05;;;;;;;;;;5014698;28;20054;-80
2022/12/23 09:40:41;;;;;;;193.80;18.23;;;;;;;;;;5017011;28;20078;-80
2022/12/23 09:43:20;;;;;;;266.80;20.33;;;;;;;;;;5016974;28;20046;-80
2022/12/23 09:45:50;;;;;;;257.00;19.70;;;;;;;;;;5013770;28;20106;-81
2022/12/23 09:48:20;;;;;;;217.85;18.02;;;;;;;;;;5018059;28;20085;-80
2022/12/23 09:50:48;;;;;;;213.40;18.13;;;;;;;;;;5017560;28;20054;-81
2022/12/23 09:53:17;;;;;;;188.57;17.95;;;;;;;;;;5012237;28;20058;-80
2022/12/23 09:56:14;;;;;;;152.88;16.58;;;;;;;;;;5013625;28;20145;-81
2022/12/23 09:59:01;;;;;;;144.40;16.05;;;;;;;;;;5014801;28;20227;-81
2022/12/23 10:01:43;;;;;;;153.65;15.60;;;;;;;;;;5020256;28;20066;-81
2022/12/23 10:04:30;;;;;;;120.40;14.35;;;;;;;;;;5015073;28;20062;-81
2022/12/23 10:07:08;;;;;;;142.02;15.00;;;;;;;;;;5015900;28;20050;-81
2022/12/23 10:09:40;;;;;;;174.13;15.95;;;;;;;;;;5014653;28;20057;-81
2022/12/23 10:12:13;;;;;;;160.65;15.80;;;;;;;;;;5015685;28;20098;-81
2022/12/23 10:14:41;;;;;;;153.30;15.05;;;;;;;;;;5014290;28;20058;-80
2022/12/23 10:17:17;;;;;;;139.38;14.50;;;;;;;;;;5017327;28;20151;-81
2022/12/23 10:19:51;;;;;;;67.05;11.18;;;;;;;;;;5012639;28;20167;-82
2022/12/23 10:22:42;;;;;;;47.60;10.45;;;;;;;;;;5014593;28;20033;-82
2022/12/23 10:25:14;;;;;;;65.55;10.60;;;;;;;;;;5014526;28;20054;-82
2022/12/23 10:27:43;;;;;;;65.63;10.07;;;;;;;;;;5014284;28;20062;-80
2022/12/23 10:30:17;;;;;;;75.55;10.38;;;;;;;;;;5019249;28;20034;-81
2022/12/23 10:33:14;;;;;;;78.97;10.02;;;;;;;;;;5008848;28;20039;-81
2022/12/23 10:35:48;;;;;;;74.45;10.68;;;;;;;;;;5015759;28;20054;-81
2022/12/23 10:38:18;;;;;;;65.85;11.27;;;;;;;;;;5019052;28;20054;-80
2022/12/23 10:40:57;;;;;;;69.80;11.88;;;;;;;;;;5019700;28;20128;-80
2022/12/23 10:43:55;;;;;;;80.47;12.52;;;;;;;;;;5018890;28;20053;-81
2022/12/23 10:46:38;;;;;;;69.75;13.25;;;;;;;;;;5034901;28;20046;-81
2022/12/23 10:49:15;;;;;;;68.43;12.93;;;;;;;;;;5017222;28;20046;-80
2022/12/23 10:51:50;;;;;;;91.10;13.25;;;;;;;;;;5022019;28;20046;-80
2022/12/23 10:54:23;;;;;;;76.20;14.82;;;;;;;;;;5017883;28;20043;-80
2022/12/23 10:56:50;;;;;;;137.03;15.53;;;;;;;;;;5019663;28;20867;-80
2022/12/23 10:59:21;;;;;;;87.80;15.93;;;;;;;;;;5018014;28;20047;-81
2022/12/23 11:01:51;;;;;;;102.43;17.02;;;;;;;;;;5018952;28;20046;-81
2022/12/23 11:04:21;;;;;;;92.95;16.13;;;;;;;;;;5021727;28;20101;-81
2022/12/23 11:06:50;;;;;;;144.57;19.17;;;;;;;;;;5015485;28;20046;-81
2022/12/23 11:09:39;;;;;;;130.65;17.42;;;;;;;;;;5016787;28;20826;-80
2022/12/23 11:12:14;;;;;;;155.45;18.95;;;;;;;;;;5016130;28;20065;-80
2022/12/23 11:14:55;;;;;;;165.30;18.98;;;;;;;;;;5013390;28;20051;-80
2022/12/23 11:17:24;;;;;;;134.60;18.35;;;;;;;;;;5017431;28;20513;-80
2022/12/23 11:20:09;;;;;;;177.85;20.85;;;;;;;;;;5012128;28;20053;-81
2022/12/23 11:22:47;;;;;;;147.73;20.48;;;;;;;;;;5016230;28;20054;-81
2022/12/23 11:25:25;;;;;;;134.98;21.70;;;;;;;;;;5018162;28;20035;-81
2022/12/23 11:27:56;;;;;;;140.02;22.90;;;;;;;;;;5017675;28;20059;-81
2022/12/23 11:30:24;;;;;;;196.85;24.08;;;;;;;;;;5019506;28;20077;-82
2022/12/23 11:32:51;;;;;;;149.85;24.48;;;;;;;;;;5021647;28;20580;-81
2022/12/23 11:35:26;;;;;;;134.40;23.75;;;;;;;;;;5019540;28;20027;-81
2022/12/23 11:37:53;;;;;;;185.07;25.80;;;;;;;;;;5023905;28;20520;-81
2022/12/23 11:40:32;;;;;;;208.23;26.45;;;;;;;;;;5019852;28;20049;-82
2022/12/23 11:43:07;;;;;;;155.65;24.80;;;;;;;;;;5025185;28;20145;-81
2022/12/23 11:45:36;;;;;;;247.10;27.27;;;;;;;;;;5020943;28;20034;-81
2022/12/23 11:48:07;;;;;;;285.75;28.40;;;;;;;;;;5022107;28;20110;-82
2022/12/23 11:50:38;;;;;;;150.38;25.55;;;;;;;;;;5021906;28;20050;-81
2022/12/23 11:53:20;;;;;;;179.02;25.05;;;;;;;;;;5020223;28;20043;-82
2022/12/23 11:56:02;;;;;;;137.10;24.05;;;;;;;;;;5026266;28;20043;-81
2022/12/23 11:58:30;;;;;;;145.15;25.58;;;;;;;;;;5026532;28;20078;-80
2022/12/23 12:00:59;;;;;;;182.02;25.35;;;;;;;;;;5024806;28;20031;-82
2022/12/23 12:03:29;;;;;;;184.85;25.33;;;;;;;;;;5031024;28;20113;-81
2022/12/23 12:06:12;;;;;;;173.85;24.63;;;;;;;;;;5029652;28;20042;-82
2022/12/23 12:08:46;;;;;;;234.77;26.55;;;;;;;;;;5043074;28;20066;-81
2022/12/23 12:11:24;;;;;;;132.68;24.58;;;;;;;;;;5029028;28;20098;-82
2022/12/23 12:14:22;;;;;;;243.25;25.83;;;;;;;;;;5030373;28;20043;-82
2022/12/23 12:16:58;;;;;;;170.73;22.98;;;;;;;;;;5030608;28;20050;-80
2022/12/23 12:19:40;;;;;;;82.65;19.75;;;;;;;;;;5035483;28;20051;-81
2022/12/23 12:22:41;;;;;;;92.40;20.75;;;;;;;;;;5022906;28;20050;-81
2022/12/23 12:25:20;;;;;;;88.53;21.77;;;;;;;;;;5039747;28;20070;-82
2022/12/23 12:27:55;;;;;;;176.00;22.38;;;;;;;;;;5023837;28;20054;-81
2022/12/23 12:30:30;;;;;;;99.60;19.67;;;;;;;;;;5028326;28;20050;-81
2022/12/23 12:33:26;;;;;;;130.95;19.08;;;;;;;;;;5028584;28;20034;-81
2022/12/23 12:36:06;;;;;;;108.28;18.75;;;;;;;;;;5026028;28;20047;-81
2022/12/23 12:38:51;;;;;;;98.03;19.00;;;;;;;;;;5027199;28;20045;-81
2022/12/23 12:41:28;;;;;;;102.57;18.50;;;;;;;;;;5023296;28;20057;-81
2022/12/23 12:44:13;;;;;;;131.43;18.20;;;;;;;;;;5021709;28;20089;-82
2022/12/23 12:46:49;;;;;;;90.25;17.80;;;;;;;;;;5037511;28;20055;-82
2022/12/23 12:49:21;;;;;;;127.10;18.77;;;;;;;;;;5035127;28;20121;-82
2022/12/23 12:52:09;;;;;;;84.10;17.73;;;;;;;;;;5023868;28;20058;-81
2022/12/23 12:55:00;;;;;;;102.60;18.40;;;;;;;;;;5020911;28;20102;-81
2022/12/23 12:57:58;;;;;;;67.70;17.30;;;;;;;;;;5030439;28;20109;-81
2022/12/23 13:00:41;;;;;;;115.50;18.63;;;;;;;;;;5021239;28;20039;-80
2022/12/23 13:03:32;;;;;;;53.42;15.70;;;;;;;;;;5022970;28;21014;-81
2022/12/23 13:06:10;;;;;;;95.18;16.98;;;;;;;;;;4986751;28;20039;-81
2022/12/23 13:08:53;;;;;;;75.07;17.20;;;;;;;;;;4985908;28;20039;-81
2022/12/23 13:11:27;;;;;;;130.43;17.90;;;;;;;;;;4969251;28;20103;-81
2022/12/23 13:13:59;;;;;;;137.88;18.40;;;;;;;;;;4977604;28;20835;-81
2022/12/23 13:16:36;;;;;;;114.90;17.35;;;;;;;;;;4965640;28;20059;-82
2022/12/23 13:19:37;;;;;;;92.60;16.10;;;;;;;;;;4979978;28;20074;-81
2022/12/23 13:22:13;;;;;;;63.55;14.68;;;;;;;;;;4963798;28;20039;-82
2022/12/23 13:24:51;;;;;;;108.03;16.75;;;;;;;;;;4981295;28;20054;-81
2022/12/23 13:27:43;;;;;;;71.05;14.85;;;;;;;;;;4964923;28;20461;-82
2022/12/23 13:30:13;;;;;;;59.00;14.38;;;;;;;;;;4983707;28;20059;-82
2022/12/23 13:32:56;;;;;;;162.65;17.05;;;;;;;;;;4983076;28;20118;-81
2022/12/23 13:35:35;;;;;;;113.88;15.60;;;;;;;;;;4982333;28;20051;-81
2022/12/23 13:38:45;;;;;;;133.98;15.43;;;;;;;;;;4977344;28;20107;-81
2022/12/23 13:41:25;;;;;;;122.80;16.00;;;;;;;;;;4982082;28;20051;-81
2022/12/23 13:44:17;;;;;;;112.55;15.95;;;;;;;;;;5016726;28;20105;-82
2022/12/23 13:47:03;;;;;;;180.43;18.13;;;;;;;;;;5017399;28;20042;-82
2022/12/23 13:49:38;;;;;;;98.15;15.90;;;;;;;;;;5020057;28;20102;-83
2022/12/23 13:52:23;;;;;;;99.05;16.33;;;;;;;;;;5021448;28;20047;-83
2022/12/23 13:55:08;;;;;;;72.38;16.80;;;;;;;;;;5018907;28;20031;-83
2022/12/23 13:57:57;;;;;;;117.00;16.65;;;;;;;;;;5015880;28;20870;-83
2022/12/23 14:00:37;;;;;;;126.82;18.00;;;;;;;;;;5020145;28;20109;-83
2022/12/23 14:03:33;;;;;;;101.63;17.95;;;;;;;;;;5020022;28;20070;-82
2022/12/23 14:06:21;;;;;;;89.97;16.17;;;;;;;;;;5020305;28;20070;-83
2022/12/23 14:08:49;;;;;;;122.38;17.90;;;;;;;;;;5022366;28;20101;-82
2022/12/23 14:11:27;;;;;;;87.22;16.60;;;;;;;;;;5024781;28;20492;-82
2022/12/23 14:14:06;;;;;;;135.02;18.30;;;;;;;;;;5015946;28;20978;-82
2022/12/23 14:16:48;;;;;;;97.53;16.25;;;;;;;;;;5022314;28;20331;-82
2022/12/23 14:19:39;;;;;;;124.05;16.55;;;;;;;;;;5019588;28;20054;-83
2022/12/23 14:22:11;;;;;;;119.00;16.48;;;;;;;;;;5024758;28;20056;-83
2022/12/23 14:24:50;;;;;;;151.88;16.50;;;;;;;;;;5013630;28;20050;-83
2022/12/23 14:27:24;;;;;;;92.95;14.80;;;;;;;;;;5017397;28;20784;-83
2022/12/23 14:30:12;;;;;;;56.53;14.70;;;;;;;;;;5019971;28;20085;-83
2022/12/23 14:33:03;;;;;;;77.85;15.57;;;;;;;;;;5019912;28;20054;-83
2022/12/23 14:35:42;;;;;;;46.40;14.70;;;;;;;;;;5010838;28;20058;-83
2022/12/23 14:38:10;;;;;;;117.65;15.23;;;;;;;;;;5019007;28;20062;-83
2022/12/23 14:40:42;;;;;;;114.95;15.60;;;;;;;;;;5029902;28;20058;-83
2022/12/23 14:43:25;;;;;;;62.03;13.82;;;;;;;;;;5017075;28;20059;-83
2022/12/23 14:45:56;;;;;;;90.00;14.73;;;;;;;;;;5017602;28;20054;-83
2022/12/23 14:48:50;;;;;;;68.80;13.48;;;;;;;;;;5019340;28;20053;-83
2022/12/23 14:51:42;;;;;;;69.63;14.15;;;;;;;;;;5008700;28;20055;-82
2022/12/23 14:54:14;;;;;;;39.40;12.85;;;;;;;;;;5011905;28;20078;-83
2022/12/23 14:57:04;;;;;;;47.10;13.18;;;;;;;;;;5017983;28;20054;-83
2022/12/23 14:59:59;;;;;;;63.63;13.10;;;;;;;;;;5019178;28;20158;-83
2022/12/23 15:02:32;;;;;;;34.72;12.63;;;;;;;;;;5016494;28;20035;-82
2022/12/23 15:05:03;;;;;;;47.15;13.07;;;;;;;;;;5019171;28;20138;-83
2022/12/23 15:07:37;;;;;;;41.72;13.88;;;;;;;;;;5013698;28;20069;-82
2022/12/23 15:10:15;;;;;;;42.63;13.25;;;;;;;;;;5015988;28;20065;-83
2022/12/23 15:12:57;;;;;;;42.53;13.40;;;;;;;;;;5013284;28;20511;-82
2022/12/23 15:15:25;;;;;;;49.05;12.68;;;;;;;;;;5012413;28;20100;-82
2022/12/23 15:18:10;;;;;;;57.20;13.05;;;;;;;;;;5018733;28;20053;-82
2022/12/23 15:21:22;;;;;;;41.65;12.68;;;;;;;;;;5016291;28;20038;-82